Time;durP1;ratioP1;P1;durP2;ratioP2;P2;SDS_P1;SDS_P2;PMS_P1;PMS_P2;Temp;Humidity;BMP_temperature;BMP_pressure;BME280_temperature;BME280_humidity;BME280_pressure;Samples;Min_cycle;Max_cycle;Signal;HPM_P1;HPM_P2
2023/10/13 00:00:29;;;;;;;;;;;19.10;70.40;;;;;;5116281;27;19908;-70
2023/10/13 00:03:00;;;;;;;;;;;19.20;70.20;;;;;;5115180;28;19912;-70
2023/10/13 00:05:27;;;;;;;;;;;19.20;69.90;;;;;;5099105;28;19962;-72
2023/10/13 00:07:54;;;;;;;;;;;19.30;70.10;;;;;;5099063;28;19912;-72
2023/10/13 00:10:21;;;;;;;;;;;19.30;68.90;;;;;;5112249;28;20287;-72
2023/10/13 00:12:51;;;;;;;;;;;19.40;68.00;;;;;;5100982;28;20345;-72
2023/10/13 00:15:21;;;;;;;;;;;19.40;68.30;;;;;;5101960;28;19939;-71
2023/10/13 00:17:47;;;;;;;;;;;19.60;69.20;;;;;;5114742;28;19912;-67
2023/10/13 00:20:35;;;;;;;;;;;19.60;68.10;;;;;;5102045;28;19958;-73
2023/10/13 00:23:02;;;;;;;;;;;19.70;68.10;;;;;;5113084;27;19911;-69
2023/10/13 00:25:34;;;;;;;;;;;19.70;68.50;;;;;;5114469;28;19909;-69
2023/10/13 00:28:01;;;;;;;;;;;19.80;68.60;;;;;;5113925;27;20057;-69
2023/10/13 00:30:34;;;;;;;;;;;20.00;69.00;;;;;;5104474;28;19965;-72
2023/10/13 00:33:00;;;;;;;;;;;20.10;68.60;;;;;;5103328;28;20996;-66
2023/10/13 00:35:37;;;;;;;;;;;20.10;67.70;;;;;;5111498;28;19916;-71
2023/10/13 00:38:06;;;;;;;;;;;20.20;67.90;;;;;;5105480;28;20032;-66
2023/10/13 00:44:03;;;;;;;;;;;20.20;66.70;;;;;;5113008;28;19973;-67
2023/10/13 00:46:07;;;;;;;;;;;20.30;67.70;;;;;;5102196;28;19915;-68
2023/10/13 00:48:45;;;;;;;;;;;20.50;68.10;;;;;;5089048;28;20307;-67
2023/10/13 00:51:34;;;;;;;;;;;20.60;66.20;;;;;;5110180;28;20356;-71
2023/10/13 00:54:02;;;;;;;;;;;20.80;65.60;;;;;;5106478;28;19961;-72
2023/10/13 00:56:30;;;;;;;;;;;21.00;63.80;;;;;;5112690;27;20022;-71
2023/10/13 00:59:02;;;;;;;;;;;21.00;63.90;;;;;;5112027;28;20075;-70
2023/10/13 01:01:35;;;;;;;;;;;21.20;63.30;;;;;;5111354;27;20267;-69
2023/10/13 01:04:04;;;;;;;;;;;21.30;63.70;;;;;;5103147;28;19924;-69
2023/10/13 01:06:31;;;;;;;;;;;21.40;63.70;;;;;;5108817;28;19930;-70
2023/10/13 01:08:59;;;;;;;;;;;21.60;63.40;;;;;;5117506;27;20272;-71
2023/10/13 01:11:29;;;;;;;;;;;21.80;61.80;;;;;;5112476;28;19908;-69
2023/10/13 01:13:57;;;;;;;;;;;21.80;61.40;;;;;;5100141;28;20349;-68
2023/10/13 01:16:26;;;;;;;;;;;22.00;62.20;;;;;;5099375;28;19920;-66
2023/10/13 01:18:59;;;;;;;;;;;22.20;61.30;;;;;;5112922;28;19908;-67
2023/10/13 01:21:29;;;;;;;;;;;22.40;60.70;;;;;;5112679;28;20008;-70
2023/10/13 01:23:56;;;;;;;;;;;22.70;60.40;;;;;;5108154;28;19909;-68
2023/10/13 01:26:26;;;;;;;;;;;22.80;59.60;;;;;;5098309;27;20414;-67
2023/10/13 01:28:59;;;;;;;;;;;23.00;59.50;;;;;;5112113;28;19960;-70
2023/10/13 01:31:29;;;;;;;;;;;23.10;59.50;;;;;;5111512;28;19915;-66
2023/10/13 01:33:58;;;;;;;;;;;23.30;57.90;;;;;;5109002;28;19935;-68
2023/10/13 01:36:28;;;;;;;;;;;23.60;58.30;;;;;;5099765;28;21559;-67
2023/10/13 01:38:55;;;;;;;;;;;23.80;57.20;;;;;;5078952;28;19915;-68
2023/10/13 01:41:22;;;;;;;;;;;23.90;57.00;;;;;;5106636;28;19973;-66
2023/10/13 01:43:49;;;;;;;;;;;24.00;55.30;;;;;;5098882;28;19965;-67
2023/10/13 01:46:19;;;;;;;;;;;24.10;55.20;;;;;;5096537;28;19999;-67
2023/10/13 01:48:46;;;;;;;;;;;24.20;56.90;;;;;;5107552;27;19959;-67
2023/10/13 01:51:12;;;;;;;;;;;24.60;55.60;;;;;;5112485;28;19912;-67
2023/10/13 01:53:41;;;;;;;;;;;24.70;53.90;;;;;;5100185;28;19912;-68
2023/10/13 01:56:11;;;;;;;;;;;24.70;55.30;;;;;;5089992;28;20062;-69
2023/10/13 01:58:41;;;;;;;;;;;24.80;54.10;;;;;;5107511;28;19908;-66
2023/10/13 02:01:08;;;;;;;;;;;24.90;53.10;;;;;;5110300;28;19915;-69
2023/10/13 02:03:41;;;;;;;;;;;24.80;53.90;;;;;;5099418;28;19908;-69
2023/10/13 02:06:10;;;;;;;;;;;24.80;53.60;;;;;;5090131;28;20343;-67
2023/10/13 02:08:40;;;;;;;;;;;24.70;53.50;;;;;;5106544;28;19915;-67
2023/10/13 02:11:07;;;;;;;;;;;24.90;55.80;;;;;;5112083;28;19934;-66
2023/10/13 02:13:41;;;;;;;;;;;25.10;53.20;;;;;;5103624;28;19912;-68
2023/10/13 02:16:08;;;;;;;;;;;25.30;53.40;;;;;;5109508;28;19927;-67
2023/10/13 02:18:41;;;;;;;;;;;25.60;54.40;;;;;;5082859;28;20368;-67
2023/10/13 02:21:14;;;;;;;;;;;25.70;53.30;;;;;;5095299;28;19969;-68
2023/10/13 02:24:29;;;;;;;;;;;25.70;53.00;;;;;;5107234;28;19912;-68
2023/10/13 02:26:38;;;;;;;;;;;25.60;53.60;;;;;;5085383;28;19955;-67
2023/10/13 02:29:07;;;;;;;;;;;25.70;53.70;;;;;;5103196;28;19912;-66
2023/10/13 02:31:37;;;;;;;;;;;26.10;53.30;;;;;;5105089;28;19907;-67
2023/10/13 02:34:07;;;;;;;;;;;26.60;53.30;;;;;;5109943;28;19930;-67
2023/10/13 02:36:48;;;;;;;;;;;27.10;52.30;;;;;;5105349;28;19992;-68
2023/10/13 02:39:27;;;;;;;;;;;27.50;52.10;;;;;;5111668;28;20376;-69
2023/10/13 02:41:55;;;;;;;;;;;28.30;50.90;;;;;;5111973;28;19908;-67
2023/10/13 02:44:31;;;;;;;;;;;29.10;52.00;;;;;;5098624;28;20362;-67
2023/10/13 02:46:58;;;;;;;;;;;30.10;49.80;;;;;;5107917;28;20461;-66
2023/10/13 02:49:33;;;;;;;;;;;31.30;49.70;;;;;;5115832;28;20437;-68
2023/10/13 02:52:05;;;;;;;;;;;32.20;48.40;;;;;;5110811;28;19950;-65
2023/10/13 02:54:37;;;;;;;;;;;33.30;47.10;;;;;;5085023;28;20405;-68
2023/10/13 02:57:05;;;;;;;;;;;33.80;47.20;;;;;;5108802;28;19908;-70
2023/10/13 02:59:39;;;;;;;;;;;34.70;45.90;;;;;;5100795;28;19955;-70
2023/10/13 03:05:13;;;;;;;;;;;35.40;48.60;;;;;;5074874;28;19912;-71
2023/10/13 03:07:43;;;;;;;;;;;36.50;45.30;;;;;;5109574;28;20268;-67
2023/10/13 03:10:10;;;;;;;;;;;36.50;46.20;;;;;;5110128;28;20462;-69
2023/10/13 03:12:40;;;;;;;;;;;37.00;45.40;;;;;;5107856;28;19908;-69
2023/10/13 03:15:48;;;;;;;;;;;36.70;45.00;;;;;;5097715;28;19924;-64
2023/10/13 03:17:58;;;;;;;;;;;36.60;45.90;;;;;;5089620;27;19908;-65
2023/10/13 03:20:31;;;;;;;;;;;37.60;45.50;;;;;;5112296;28;19912;-70
2023/10/13 03:22:58;;;;;;;;;;;38.50;44.90;;;;;;5095544;28;19912;-65
2023/10/13 03:30:30;;;;;;;;;;;39.30;45.70;;;;;;5113428;28;19959;-67
2023/10/13 03:32:56;;;;;;;;;;;39.50;46.50;;;;;;5100095;28;19999;-67
2023/10/13 03:35:37;;;;;;;;;;;39.00;45.50;;;;;;5103981;28;20022;-68
2023/10/13 03:38:27;;;;;;;;;;;38.60;45.30;;;;;;5102913;27;19908;-71
2023/10/13 03:43:45;;;;;;;;;;;39.10;45.60;;;;;;5113111;28;19911;-64
2023/10/13 03:46:11;;;;;;;;;;;39.30;46.30;;;;;;5110768;28;19920;-64
2023/10/13 03:48:52;;;;;;;;;;;39.20;45.50;;;;;;5113161;27;20014;-67
2023/10/13 03:51:19;;;;;;;;;;;38.80;45.50;;;;;;5096013;28;20300;-67
2023/10/13 03:53:56;;;;;;;;;;;38.70;45.60;;;;;;5102314;28;19912;-70
2023/10/13 03:56:28;;;;;;;;;;;38.60;45.70;;;;;;5100708;28;19920;-68
2023/10/13 03:59:06;;;;;;;;;;;38.90;46.20;;;;;;5105339;27;20334;-70
2023/10/13 04:17:23;;;;;;;;;;;39.80;44.40;;;;;;5110926;28;19920;-67
2023/10/13 04:28:37;;;;;;;;;;;39.30;44.60;;;;;;5033009;28;19913;-66
2023/10/13 04:31:11;;;;;;;;;;;39.00;43.70;;;;;;5029196;28;19913;-66
2023/10/13 04:33:51;;;;;;;;;;;37.60;45.00;;;;;;5074555;28;20269;-69
2023/10/13 04:39:09;;;;;;;;;;;39.10;44.80;;;;;;5112484;27;19934;-66
2023/10/13 04:41:42;;;;;;;;;;;38.90;45.00;;;;;;5094202;28;19911;-68
2023/10/13 04:49:28;;;;;;;;;;;40.40;44.40;;;;;;5112611;28;20414;-68
2023/10/13 04:51:59;;;;;;;;;;;40.10;44.20;;;;;;5109225;28;19916;-68
2023/10/13 04:54:32;;;;;;;;;;;39.80;43.80;;;;;;5100297;27;20000;-67
2023/10/13 04:57:23;;;;;;;;;;;39.40;45.10;;;;;;5110797;28;19995;-68
2023/10/13 06:28:40;;;;;;;;;;;33.50;48.60;;;;;;5104834;28;19916;-68
2023/10/13 06:29:58;;;;;;;;;;;29.30;54.10;;;;;;5104528;28;20410;-66
2023/10/13 06:32:27;;;;;;;;;;;29.30;53.30;;;;;;5102955;28;20331;-67
2023/10/13 06:37:53;;;;;;;;;;;29.20;54.70;;;;;;5044599;28;19908;-68
2023/10/13 06:42:49;;;;;;;;;;;31.30;52.60;;;;;;5090121;28;19912;-67
2023/10/13 06:45:21;;;;;;;;;;;30.70;53.00;;;;;;5106538;28;19919;-68
2023/10/13 06:47:52;;;;;;;;;;;30.90;51.90;;;;;;5111913;28;20018;-68
2023/10/13 06:50:24;;;;;;;;;;;29.00;53.90;;;;;;5109046;28;19912;-68
2023/10/13 06:52:54;;;;;;;;;;;27.80;56.00;;;;;;5097115;28;19968;-68
2023/10/13 06:55:27;;;;;;;;;;;27.20;56.90;;;;;;5110755;27;20360;-71
2023/10/13 06:57:59;;;;;;;;;;;28.00;56.10;;;;;;5115931;28;19908;-69
2023/10/13 07:00:32;;;;;;;;;;;28.70;55.40;;;;;;5112045;28;19991;-67
2023/10/13 07:03:06;;;;;;;;;;;28.40;55.10;;;;;;5110842;28;19911;-70
2023/10/13 07:05:41;;;;;;;;;;;27.70;56.80;;;;;;5113917;27;19908;-69
2023/10/13 07:08:08;;;;;;;;;;;27.70;56.50;;;;;;5113869;28;19934;-69
2023/10/13 07:10:48;;;;;;;;;;;26.60;58.50;;;;;;5109314;27;20423;-65
2023/10/13 07:13:16;;;;;;;;;;;25.70;59.70;;;;;;5093368;28;19956;-68
2023/10/13 07:15:46;;;;;;;;;;;24.90;61.80;;;;;;5111395;28;19939;-65
2023/10/13 07:18:13;;;;;;;;;;;24.30;63.40;;;;;;5096776;28;19916;-67
2023/10/13 07:20:46;;;;;;;;;;;23.80;63.30;;;;;;5102853;28;19955;-67
2023/10/13 07:23:20;;;;;;;;;;;23.50;65.10;;;;;;5094645;28;19912;-66
2023/10/13 07:25:54;;;;;;;;;;;23.40;65.80;;;;;;5112006;28;20279;-69
2023/10/13 07:28:21;;;;;;;;;;;23.10;66.00;;;;;;5114358;28;19951;-68
2023/10/13 07:33:20;;;;;;;;;;;22.80;66.50;;;;;;5095007;28;19909;-66
2023/10/13 07:35:51;;;;;;;;;;;22.70;67.50;;;;;;5111792;27;19920;-67
2023/10/13 07:38:21;;;;;;;;;;;22.50;68.40;;;;;;5106541;28;20007;-70
2023/10/13 07:40:53;;;;;;;;;;;22.40;68.70;;;;;;5101576;28;19919;-68
2023/10/13 07:43:23;;;;;;;;;;;22.30;68.70;;;;;;5094164;28;20277;-68
2023/10/13 07:45:58;;;;;;;;;;;22.00;69.40;;;;;;5105586;28;20258;-69
2023/10/13 07:48:25;;;;;;;;;;;21.80;70.20;;;;;;5094191;28;19920;-68
2023/10/13 07:51:13;;;;;;;;;;;21.70;70.70;;;;;;5101306;28;20332;-69
2023/10/13 07:53:40;;;;;;;;;;;21.70;71.30;;;;;;5093734;28;19915;-68
2023/10/13 07:56:18;;;;;;;;;;;21.40;71.20;;;;;;5114541;27;19919;-71
2023/10/13 07:59:00;;;;;;;;;;;21.40;72.80;;;;;;5098687;28;20069;-68
2023/10/13 08:01:30;;;;;;;;;;;21.30;72.10;;;;;;5103835;28;19926;-69
2023/10/13 08:04:11;;;;;;;;;;;21.30;71.60;;;;;;5114466;28;19947;-67
2023/10/13 08:06:40;;;;;;;;;;;21.20;71.80;;;;;;5114624;28;19912;-68
2023/10/13 08:11:54;;;;;;;;;;;21.20;71.60;;;;;;5097703;28;20295;-67
2023/10/13 08:14:33;;;;;;;;;;;21.10;71.10;;;;;;5095434;27;19908;-68
2023/10/13 08:17:00;;;;;;;;;;;21.00;72.50;;;;;;5113593;28;19920;-72
2023/10/13 08:19:27;;;;;;;;;;;20.90;72.30;;;;;;5106966;27;19914;-69
2023/10/13 08:22:23;;;;;;;;;;;20.80;73.10;;;;;;5076871;28;19958;-72
2023/10/13 08:43:08;;;;;;;;;;;20.30;75.90;;;;;;5107847;28;19919;-69
2023/10/13 08:48:07;;;;;;;;;;;20.20;77.10;;;;;;5109736;28;19950;-72
2023/10/13 08:50:52;;;;;;;;;;;20.20;77.20;;;;;;5101189;28;19911;-67
2023/10/13 08:53:45;;;;;;;;;;;20.20;77.70;;;;;;5093254;28;20004;-68
2023/10/13 08:56:33;;;;;;;;;;;20.10;77.70;;;;;;5104592;28;19920;-69
2023/10/13 09:09:44;;;;;;;;;;;20.00;74.00;;;;;;5092976;27;19922;-69
2023/10/13 09:12:14;;;;;;;;;;;20.10;71.20;;;;;;5096118;28;20015;-71
2023/10/13 09:14:46;;;;;;;;;;;20.20;70.40;;;;;;5094203;28;19908;-68
2023/10/13 09:17:34;;;;;;;;;;;20.20;70.50;;;;;;5101044;28;19912;-67
2023/10/13 09:20:32;;;;;;;;;;;20.30;70.00;;;;;;5096595;27;19912;-71
2023/10/13 09:25:35;;;;;;;;;;;20.30;69.90;;;;;;5100399;27;19911;-67
2023/10/13 09:28:18;;;;;;;;;;;20.30;69.80;;;;;;5093412;28;19991;-67
2023/10/13 09:30:56;;;;;;;;;;;20.30;69.90;;;;;;5098251;28;19916;-74
2023/10/13 09:33:35;;;;;;;;;;;20.30;69.90;;;;;;5092575;28;19912;-72
2023/10/13 09:36:04;;;;;;;;;;;20.40;69.80;;;;;;5097512;27;19931;-72
2023/10/13 09:38:34;;;;;;;;;;;20.30;69.60;;;;;;5104891;28;19908;-71
2023/10/13 09:41:53;;;;;;;;;;;20.20;69.80;;;;;;5102134;28;19994;-64
2023/10/13 09:43:51;;;;;;;;;;;20.30;69.60;;;;;;5077405;28;20384;-71
2023/10/13 09:46:26;;;;;;;;;;;20.30;69.90;;;;;;5102813;28;19920;-69
2023/10/13 09:49:14;;;;;;;;;;;20.20;69.90;;;;;;5091794;28;19943;-71
2023/10/13 09:51:45;;;;;;;;;;;20.10;70.10;;;;;;5099794;28;20272;-72
2023/10/13 09:54:44;;;;;;;;;;;20.20;70.10;;;;;;5105750;28;19908;-70
2023/10/13 09:57:19;;;;;;;;;;;20.10;70.20;;;;;;5068348;28;19959;-70
2023/10/13 09:59:52;;;;;;;;;;;20.10;70.30;;;;;;5073492;28;20468;-69
2023/10/13 10:02:24;;;;;;;;;;;20.10;70.30;;;;;;5104477;28;19912;-68
2023/10/13 10:08:02;;;;;;;;;;;20.10;70.30;;;;;;5059486;28;20333;-70
2023/10/13 10:10:47;;;;;;;;;;;20.00;70.70;;;;;;5050905;28;19913;-69
2023/10/13 10:13:30;;;;;;;;;;;20.00;70.70;;;;;;5074999;28;19908;-67
2023/10/13 10:16:00;;;;;;;;;;;20.00;71.60;;;;;;5108362;28;19924;-71
2023/10/13 10:18:27;;;;;;;;;;;19.90;71.00;;;;;;5092884;28;20415;-66
2023/10/13 10:21:07;;;;;;;;;;;19.80;71.10;;;;;;5099571;28;20379;-70
2023/10/13 10:23:39;;;;;;;;;;;19.80;71.40;;;;;;5112479;28;20348;-72
2023/10/13 10:26:22;;;;;;;;;;;19.80;71.70;;;;;;5107603;27;19947;-69
2023/10/13 10:28:48;;;;;;;;;;;19.70;71.80;;;;;;5095943;28;19954;-69
2023/10/13 10:31:17;;;;;;;;;;;19.70;72.10;;;;;;5106464;28;19919;-67
2023/10/13 10:33:44;;;;;;;;;;;19.60;71.90;;;;;;5116307;28;19912;-69
2023/10/13 10:36:14;;;;;;;;;;;19.60;71.90;;;;;;5108099;28;20404;-73
2023/10/13 10:39:05;;;;;;;;;;;19.60;71.90;;;;;;5083680;28;19918;-69
2023/10/13 10:44:15;;;;;;;;;;;19.50;72.20;;;;;;5115866;28;19908;-66
2023/10/13 10:46:51;;;;;;;;;;;19.50;72.20;;;;;;5113161;28;20410;-66
2023/10/13 10:49:29;;;;;;;;;;;19.50;72.30;;;;;;5095458;28;19963;-69
2023/10/13 10:52:00;;;;;;;;;;;19.50;72.50;;;;;;5110470;28;19957;-69
2023/10/13 10:54:33;;;;;;;;;;;19.50;72.60;;;;;;5115890;28;19988;-70
2023/10/13 10:57:18;;;;;;;;;;;19.40;72.90;;;;;;5105014;27;19973;-69
2023/10/13 10:59:45;;;;;;;;;;;19.40;73.30;;;;;;5094895;28;19912;-68
2023/10/13 11:02:27;;;;;;;;;;;19.30;73.90;;;;;;5112058;27;19915;-71
2023/10/13 11:04:55;;;;;;;;;;;19.30;73.20;;;;;;5116080;28;20291;-72
2023/10/13 11:07:23;;;;;;;;;;;19.30;73.40;;;;;;5102128;27;19952;-70
2023/10/13 11:09:52;;;;;;;;;;;19.30;73.80;;;;;;5097671;28;19916;-65
2023/10/13 11:12:24;;;;;;;;;;;19.20;73.40;;;;;;5105299;28;20324;-67
2023/10/13 11:15:26;;;;;;;;;;;19.20;73.80;;;;;;5095157;28;19916;-68
2023/10/13 11:17:56;;;;;;;;;;;19.20;73.80;;;;;;5094684;28;20292;-70
2023/10/13 11:20:26;;;;;;;;;;;19.10;74.20;;;;;;5095190;28;19915;-71
2023/10/13 11:22:53;;;;;;;;;;;19.10;74.20;;;;;;5111815;28;20444;-71
2023/10/13 11:25:34;;;;;;;;;;;19.10;74.00;;;;;;5096323;28;19912;-69
2023/10/13 11:28:19;;;;;;;;;;;19.10;74.00;;;;;;5076283;28;19920;-72
2023/10/13 11:30:52;;;;;;;;;;;19.00;74.30;;;;;;5097328;27;19976;-73
2023/10/13 11:33:28;;;;;;;;;;;19.10;74.60;;;;;;5114829;28;19911;-72
2023/10/13 11:35:55;;;;;;;;;;;19.00;74.80;;;;;;5100447;28;19926;-72
2023/10/13 11:41:16;;;;;;;;;;;19.00;74.80;;;;;;5100237;28;19911;-68
2023/10/13 11:48:42;;;;;;;;;;;18.80;75.90;;;;;;5111782;28;19950;-69
2023/10/13 11:51:23;;;;;;;;;;;18.80;76.60;;;;;;5099359;28;19957;-69
2023/10/13 11:53:53;;;;;;;;;;;18.80;76.80;;;;;;5093864;28;19923;-71
2023/10/13 11:56:21;;;;;;;;;;;18.70;76.60;;;;;;5086882;28;19920;-69
2023/10/13 11:58:48;;;;;;;;;;;18.70;76.00;;;;;;5093984;28;19931;-73
2023/10/13 12:11:48;;;;;;;;;;;18.50;76.60;;;;;;5071412;28;20446;-70
2023/10/13 12:14:57;;;;;;;;;;;18.60;76.50;;;;;;5114112;28;19914;-71
2023/10/13 12:17:10;;;;;;;;;;;18.60;76.80;;;;;;5095001;27;19920;-68
2023/10/13 12:19:38;;;;;;;;;;;18.60;76.40;;;;;;5092687;28;20455;-69
2023/10/13 12:22:08;;;;;;;;;;;18.60;76.40;;;;;;5092826;28;19987;-69
2023/10/13 12:27:19;;;;;;;;;;;18.60;76.40;;;;;;5107000;28;19954;-69
2023/10/13 12:29:46;;;;;;;;;;;18.60;76.20;;;;;;5092770;28;19913;-70
2023/10/13 12:32:22;;;;;;;;;;;18.60;76.30;;;;;;5074296;28;19963;-70
2023/10/13 12:54:13;;;;;;;;;;;18.50;77.20;;;;;;5094440;28;19911;-70
2023/10/13 12:56:43;;;;;;;;;;;18.40;77.20;;;;;;5093486;28;20018;-67
2023/10/13 12:59:13;;;;;;;;;;;18.40;77.00;;;;;;5093664;28;19908;-69
2023/10/13 13:01:43;;;;;;;;;;;18.40;77.40;;;;;;5093570;28;19908;-68
2023/10/13 13:04:20;;;;;;;;;;;18.30;77.50;;;;;;5093595;28;19915;-72
2023/10/13 13:06:47;;;;;;;;;;;18.30;77.60;;;;;;5100408;28;19991;-67
2023/10/13 13:09:14;;;;;;;;;;;18.30;78.00;;;;;;5110756;28;19908;-71
2023/10/13 13:11:40;;;;;;;;;;;18.20;77.80;;;;;;5113164;28;19955;-66
2023/10/13 13:14:10;;;;;;;;;;;18.30;77.90;;;;;;5093552;28;20456;-68
2023/10/13 13:16:39;;;;;;;;;;;18.20;78.00;;;;;;5105418;28;19920;-69
2023/10/13 13:19:14;;;;;;;;;;;18.20;78.20;;;;;;5113527;28;19958;-65
2023/10/13 13:21:41;;;;;;;;;;;18.20;78.50;;;;;;5113515;28;20006;-69
2023/10/13 13:24:10;;;;;;;;;;;18.20;78.50;;;;;;5112711;28;20006;-66
2023/10/13 13:26:40;;;;;;;;;;;18.20;78.80;;;;;;5112283;28;19911;-70
2023/10/13 13:29:10;;;;;;;;;;;18.10;78.80;;;;;;5113402;28;19990;-68
2023/10/13 13:31:46;;;;;;;;;;;18.10;79.10;;;;;;5110395;27;19960;-65
2023/10/13 13:34:13;;;;;;;;;;;18.00;79.00;;;;;;5112656;28;20349;-66
2023/10/13 13:36:44;;;;;;;;;;;18.10;79.30;;;;;;5105023;28;20013;-70
2023/10/13 13:39:11;;;;;;;;;;;18.00;79.20;;;;;;5092765;28;19950;-71
2023/10/13 13:41:38;;;;;;;;;;;18.00;79.60;;;;;;5101209;28;20411;-68
2023/10/13 13:44:13;;;;;;;;;;;17.90;79.60;;;;;;5107788;28;19961;-69
2023/10/13 13:46:42;;;;;;;;;;;17.90;79.80;;;;;;5100246;28;19912;-68
2023/10/13 13:49:17;;;;;;;;;;;17.90;80.00;;;;;;5092046;28;19920;-66
2023/10/13 13:51:51;;;;;;;;;;;17.90;79.90;;;;;;5101764;27;19965;-65
2023/10/13 13:54:19;;;;;;;;;;;17.90;80.10;;;;;;5112746;28;19907;-68
2023/10/13 13:56:46;;;;;;;;;;;17.80;80.00;;;;;;5107115;28;19924;-66
2023/10/13 13:59:15;;;;;;;;;;;17.80;80.20;;;;;;5112028;28;20353;-69
2023/10/13 14:01:44;;;;;;;;;;;17.80;80.30;;;;;;5100652;28;20361;-70
2023/10/13 14:04:11;;;;;;;;;;;17.80;80.40;;;;;;5074518;28;19912;-66
2023/10/13 14:06:40;;;;;;;;;;;17.80;80.50;;;;;;5098137;28;19915;-69
2023/10/13 14:09:32;;;;;;;;;;;17.80;80.50;;;;;;5099163;27;19915;-68
2023/10/13 14:15:19;;;;;;;;;;;17.80;81.00;;;;;;5104947;28;19918;-68
2023/10/13 14:17:35;;;;;;;;;;;17.80;80.70;;;;;;5091482;28;19967;-70
2023/10/13 14:20:14;;;;;;;;;;;17.70;81.00;;;;;;5106841;28;19938;-70
2023/10/13 14:22:41;;;;;;;;;;;17.70;80.90;;;;;;5092584;28;19978;-72
2023/10/13 14:25:14;;;;;;;;;;;17.70;80.80;;;;;;5106741;28;19918;-70
2023/10/13 14:27:41;;;;;;;;;;;17.60;81.00;;;;;;5110702;28;20376;-71
2023/10/13 14:30:08;;;;;;;;;;;17.70;81.00;;;;;;5112793;28;19916;-71
2023/10/13 14:32:40;;;;;;;;;;;17.70;81.20;;;;;;5093122;28;20261;-69
2023/10/13 14:35:25;;;;;;;;;;;17.60;81.10;;;;;;5096215;28;19961;-69
2023/10/13 14:37:52;;;;;;;;;;;17.60;81.40;;;;;;5102117;28;19919;-70
2023/10/13 14:40:21;;;;;;;;;;;17.60;81.60;;;;;;5112324;28;19926;-70
2023/10/13 14:42:48;;;;;;;;;;;17.50;81.60;;;;;;5092126;28;19914;-71
2023/10/13 14:45:18;;;;;;;;;;;17.50;81.40;;;;;;5105467;28;20023;-70
2023/10/13 14:47:44;;;;;;;;;;;17.50;81.70;;;;;;5096955;28;19923;-69
2023/10/13 14:50:21;;;;;;;;;;;17.50;81.60;;;;;;5107136;28;19915;-71
2023/10/13 14:52:48;;;;;;;;;;;17.50;81.90;;;;;;5132666;28;19995;-69
2023/10/13 14:55:37;;;;;;;;;;;17.40;81.80;;;;;;5130259;28;19926;-69
2023/10/13 14:58:15;;;;;;;;;;;17.40;81.60;;;;;;5096269;28;19926;-69
2023/10/13 15:00:46;;;;;;;;;;;17.40;81.60;;;;;;5091419;28;19919;-69
2023/10/13 15:03:12;;;;;;;;;;;17.40;81.60;;;;;;5102673;28;19922;-71
2023/10/13 15:05:39;;;;;;;;;;;17.30;81.70;;;;;;5109818;28;19914;-71
2023/10/13 15:08:06;;;;;;;;;;;17.40;81.70;;;;;;5101886;28;19912;-69
2023/10/13 15:10:33;;;;;;;;;;;17.30;81.50;;;;;;5091563;28;19916;-70
2023/10/13 15:12:59;;;;;;;;;;;17.40;81.60;;;;;;5104456;28;19912;-70
2023/10/13 15:15:26;;;;;;;;;;;17.40;81.80;;;;;;5113100;28;20395;-70
2023/10/13 15:17:53;;;;;;;;;;;17.30;82.00;;;;;;5099240;28;19916;-71
2023/10/13 15:20:20;;;;;;;;;;;17.30;82.10;;;;;;5094739;28;19909;-71
2023/10/13 15:22:53;;;;;;;;;;;17.30;82.10;;;;;;5101577;28;19912;-71
2023/10/13 15:25:29;;;;;;;;;;;17.30;82.40;;;;;;5113687;28;20002;-71
2023/10/13 15:28:02;;;;;;;;;;;17.30;82.30;;;;;;5098894;27;19919;-69
2023/10/13 15:30:44;;;;;;;;;;;17.20;82.50;;;;;;5095233;28;19908;-68
2023/10/13 15:33:13;;;;;;;;;;;17.20;82.60;;;;;;5104524;28;19912;-72
2023/10/13 15:35:45;;;;;;;;;;;17.20;83.00;;;;;;5101189;28;20284;-71
2023/10/13 15:38:21;;;;;;;;;;;17.20;82.90;;;;;;5105349;27;19916;-68
2023/10/13 15:40:54;;;;;;;;;;;17.10;83.40;;;;;;5094678;28;19919;-71
2023/10/13 15:43:21;;;;;;;;;;;17.10;83.40;;;;;;5101670;28;20285;-71
2023/10/13 15:45:47;;;;;;;;;;;17.10;83.70;;;;;;5094402;28;19908;-72
2023/10/13 15:48:15;;;;;;;;;;;17.00;84.10;;;;;;5097688;27;19930;-71
2023/10/13 15:50:42;;;;;;;;;;;17.00;84.00;;;;;;5094372;28;19923;-71
2023/10/13 15:53:12;;;;;;;;;;;16.90;85.00;;;;;;5102540;27;19912;-71
2023/10/13 15:55:39;;;;;;;;;;;16.90;84.30;;;;;;5113857;28;19958;-71
2023/10/13 15:58:08;;;;;;;;;;;16.90;85.00;;;;;;5105387;27;19912;-71
2023/10/13 16:00:36;;;;;;;;;;;16.90;85.20;;;;;;5094193;28;19912;-70
2023/10/13 16:03:09;;;;;;;;;;;16.80;85.20;;;;;;5100262;28;19941;-71
2023/10/13 16:05:37;;;;;;;;;;;16.80;85.40;;;;;;5112442;28;19919;-70
2023/10/13 16:08:06;;;;;;;;;;;16.70;85.90;;;;;;5105142;28;19954;-73
2023/10/13 16:10:33;;;;;;;;;;;16.70;86.50;;;;;;5093990;28;19912;-73
2023/10/13 16:13:00;;;;;;;;;;;16.60;86.20;;;;;;5099716;28;19937;-65
2023/10/13 16:15:26;;;;;;;;;;;16.70;86.00;;;;;;5112882;28;20021;-66
2023/10/13 16:17:53;;;;;;;;;;;16.60;86.30;;;;;;5096849;27;20433;-69
2023/10/13 16:20:20;;;;;;;;;;;16.60;86.30;;;;;;5094071;28;20455;-65
2023/10/13 16:22:48;;;;;;;;;;;16.70;87.00;;;;;;5094198;28;19911;-69
2023/10/13 16:25:15;;;;;;;;;;;16.60;86.70;;;;;;5093755;28;20423;-69
2023/10/13 16:27:43;;;;;;;;;;;16.60;87.00;;;;;;5095870;27;19959;-70
2023/10/13 16:30:14;;;;;;;;;;;16.60;87.40;;;;;;5093925;28;19995;-70
2023/10/13 16:32:45;;;;;;;;;;;16.50;87.30;;;;;;5095878;27;20045;-65
2023/10/13 16:35:13;;;;;;;;;;;16.50;86.80;;;;;;5114076;28;20734;-70
2023/10/13 16:37:40;;;;;;;;;;;16.50;87.60;;;;;;5101237;27;19979;-68
2023/10/13 16:40:08;;;;;;;;;;;16.50;87.60;;;;;;5093138;28;19912;-72
2023/10/13 16:42:37;;;;;;;;;;;16.50;87.10;;;;;;5109236;28;19919;-69
2023/10/13 16:45:20;;;;;;;;;;;16.50;87.30;;;;;;5111866;28;20015;-70
2023/10/13 16:47:47;;;;;;;;;;;16.50;87.40;;;;;;5094811;28;19927;-69
2023/10/13 16:50:14;;;;;;;;;;;16.40;87.30;;;;;;5092980;28;19911;-71
2023/10/13 16:52:49;;;;;;;;;;;16.40;87.70;;;;;;5093871;28;19908;-68
2023/10/13 16:55:19;;;;;;;;;;;16.40;88.20;;;;;;5113087;28;19972;-72
2023/10/13 16:57:50;;;;;;;;;;;16.30;88.20;;;;;;5104389;28;19912;-69
2023/10/13 17:00:18;;;;;;;;;;;16.30;88.00;;;;;;5093128;28;19912;-72
2023/10/13 17:02:45;;;;;;;;;;;16.30;87.90;;;;;;5093666;27;20509;-71
2023/10/13 17:05:13;;;;;;;;;;;16.20;87.70;;;;;;5113209;28;19915;-70
2023/10/13 17:07:40;;;;;;;;;;;16.20;88.50;;;;;;5102974;28;19908;-70
2023/10/13 17:10:11;;;;;;;;;;;16.20;88.40;;;;;;5094291;27;19912;-70
2023/10/13 17:12:37;;;;;;;;;;;16.20;88.40;;;;;;5093165;28;19915;-71
2023/10/13 17:15:13;;;;;;;;;;;16.20;88.50;;;;;;5113652;27;19942;-72
2023/10/13 17:17:42;;;;;;;;;;;16.20;88.70;;;;;;5095875;28;20458;-69
2023/10/13 17:20:09;;;;;;;;;;;16.10;89.00;;;;;;5103131;28;20368;-71
2023/10/13 17:22:40;;;;;;;;;;;16.10;89.30;;;;;;5096838;28;19938;-70
2023/10/13 17:25:07;;;;;;;;;;;16.20;89.80;;;;;;5101848;28;19969;-71
2023/10/13 17:27:37;;;;;;;;;;;16.10;88.70;;;;;;5103572;28;19914;-74
2023/10/13 17:30:05;;;;;;;;;;;16.10;88.60;;;;;;5099981;28;19916;-73
2023/10/13 17:32:32;;;;;;;;;;;16.10;88.90;;;;;;5092809;28;19919;-71
2023/10/13 17:35:03;;;;;;;;;;;16.10;89.00;;;;;;5109723;28;19916;-71
2023/10/13 17:37:30;;;;;;;;;;;16.00;88.50;;;;;;5100951;28;19956;-69
2023/10/13 17:40:01;;;;;;;;;;;16.00;88.60;;;;;;5112379;28;19958;-71
2023/10/13 17:42:28;;;;;;;;;;;16.00;88.80;;;;;;5108918;28;19919;-70
2023/10/13 17:44:55;;;;;;;;;;;16.00;88.80;;;;;;5112292;28;20417;-71
2023/10/13 17:47:22;;;;;;;;;;;16.00;90.20;;;;;;5094346;28;19981;-71
2023/10/13 17:49:50;;;;;;;;;;;15.90;89.90;;;;;;5107971;27;20318;-68
2023/10/13 17:52:17;;;;;;;;;;;15.90;90.00;;;;;;5111585;28;20292;-70
2023/10/13 17:54:45;;;;;;;;;;;15.80;90.00;;;;;;5112942;28;19912;-70
2023/10/13 17:57:11;;;;;;;;;;;15.90;90.50;;;;;;5095878;28;19916;-70
2023/10/13 17:59:38;;;;;;;;;;;15.80;90.50;;;;;;5106300;28;19912;-69
2023/10/13 18:02:06;;;;;;;;;;;15.80;91.00;;;;;;5112035;28;19952;-73
2023/10/13 18:04:33;;;;;;;;;;;15.70;91.10;;;;;;5111872;28;19912;-72
2023/10/13 18:07:00;;;;;;;;;;;15.80;91.50;;;;;;5107230;28;19966;-69
2023/10/13 18:09:27;;;;;;;;;;;15.70;91.70;;;;;;5102763;28;19915;-71
2023/10/13 18:11:54;;;;;;;;;;;15.60;91.70;;;;;;5111776;28;20007;-70
2023/10/13 18:14:21;;;;;;;;;;;15.50;92.10;;;;;;5103537;28;19912;-70
2023/10/13 18:16:49;;;;;;;;;;;15.50;92.50;;;;;;5104801;28;20002;-70
2023/10/13 18:19:20;;;;;;;;;;;15.50;92.80;;;;;;5100871;28;19922;-72
2023/10/13 18:21:47;;;;;;;;;;;15.40;93.20;;;;;;5111979;28;19952;-70
2023/10/13 18:24:14;;;;;;;;;;;15.50;93.30;;;;;;5111720;28;19918;-69
2023/10/13 18:26:40;;;;;;;;;;;15.50;93.40;;;;;;5100333;28;19934;-69
2023/10/13 18:29:09;;;;;;;;;;;15.40;93.70;;;;;;5099538;28;19912;-71